createdAt,value
2022-09-28T00:01:43.334Z,97366.53
2022-09-28T00:07:45.316Z,97358.28
2022-09-28T00:13:52.380Z,97345.81
2022-09-28T00:19:55.829Z,97349.78
2022-09-28T00:26:05.662Z,97333.06
2022-09-28T00:32:11.712Z,97325.44
2022-09-28T00:38:16.681Z,97313.47
2022-09-28T00:44:36.136Z,97301.53
2022-09-28T00:50:38.845Z,97290.44
2022-09-28T00:56:47.749Z,97285.00
2022-09-28T01:02:50.123Z,97273.00
2022-09-28T01:08:53.522Z,97271.06
2022-09-28T01:14:57.559Z,97268.28
2022-09-28T01:21:20.650Z,97266.13
2022-09-28T01:27:32.064Z,97257.84
2022-09-28T01:33:44.260Z,97252.75
2022-09-28T01:39:50.154Z,97246.59
2022-09-28T01:46:01.928Z,97242.84
2022-09-28T01:52:15.668Z,97232.38
2022-09-28T01:58:49.592Z,97234.91
2022-09-28T02:05:19.573Z,97215.53
2022-09-28T02:11:23.631Z,97213.91
2022-09-28T02:17:25.619Z,97205.47
2022-09-28T02:23:31.106Z,97190.56
2022-09-28T02:29:33.013Z,97193.47
2022-09-28T02:35:35.623Z,97192.91
2022-09-28T02:41:51.856Z,97187.50
2022-09-28T02:48:44.767Z,97181.19
2022-09-28T02:55:19.169Z,97178.75
2022-09-28T03:01:29.837Z,97165.13
2022-09-28T03:07:50.786Z,97160.84
2022-09-28T03:13:53.918Z,97153.38
2022-09-28T03:19:55.833Z,97153.31
2022-09-28T03:25:57.870Z,97149.47
2022-09-28T03:31:59.828Z,97138.47
2022-09-28T03:38:01.762Z,97135.63
2022-09-28T03:44:03.960Z,97129.84
2022-09-28T03:50:06.909Z,97130.38
2022-09-28T03:56:14.219Z,97135.72
2022-09-28T04:02:16.186Z,97125.50
2022-09-28T04:08:18.772Z,97116.09
2022-09-28T04:14:20.728Z,97104.44
2022-09-28T04:20:22.701Z,97102.91
2022-09-28T04:26:27.016Z,97094.41
2022-09-28T04:32:28.922Z,97093.56
2022-09-28T04:38:51.378Z,97094.75
2022-09-28T04:44:52.798Z,97092.19
2022-09-28T04:51:04.715Z,97077.84
2022-09-28T04:57:06.774Z,97093.75
2022-09-28T05:03:08.671Z,97097.44
2022-09-28T05:09:10.702Z,97093.28
2022-09-28T05:15:12.638Z,97093.22
2022-09-28T05:21:15.707Z,97101.22
2022-09-28T05:27:17.860Z,97102.31
2022-09-28T05:33:19.686Z,97099.94
2022-09-28T05:39:21.627Z,97099.31
2022-09-28T05:45:23.536Z,97097.16
2022-09-28T05:51:25.544Z,97096.81
2022-09-28T05:57:27.501Z,97095.81
2022-09-28T06:03:29.432Z,97097.00
2022-09-28T06:09:31.426Z,97102.72
2022-09-28T06:15:36.255Z,97100.06
2022-09-28T06:21:38.385Z,97115.69
2022-09-28T06:27:43.733Z,97119.50
2022-09-28T06:33:45.662Z,97119.34
2022-09-28T06:53:39.359Z,97135.22
2022-09-28T06:59:56.514Z,97140.34
2022-09-28T07:05:58.658Z,97138.13
2022-09-28T07:12:00.724Z,97149.44
2022-09-28T07:18:05.376Z,97163.19
2022-09-28T07:24:08.141Z,97159.19
2022-09-28T07:30:10.922Z,97172.72
2022-09-28T07:36:14.189Z,97176.59
2022-09-28T07:42:16.666Z,97181.47
2022-09-28T07:48:19.330Z,97180.78
2022-09-28T07:54:21.240Z,97188.69
2022-09-28T08:00:23.287Z,97191.53
2022-09-28T08:06:45.011Z,97204.69
2022-09-28T08:13:06.430Z,97209.84
2022-09-28T08:19:10.591Z,97217.47
2022-09-28T08:25:12.574Z,97220.94
2022-09-28T08:31:14.647Z,97222.66
2022-09-28T08:37:16.758Z,97225.19
2022-09-28T08:43:49.732Z,97228.75
2022-09-28T08:49:51.791Z,97242.69
2022-09-28T08:55:54.103Z,97241.06
2022-09-28T09:02:00.903Z,97250.38
2022-09-28T09:08:18.714Z,97257.72
2022-09-28T09:14:50.678Z,97265.63
2022-09-28T09:21:04.704Z,97264.69
2022-09-28T09:27:32.708Z,97273.16
2022-09-28T09:34:16.234Z,97274.97
2022-09-28T09:40:53.076Z,97279.41
2022-09-28T09:53:37.610Z,97288.81
2022-09-28T09:59:44.482Z,97289.50
2022-09-28T10:05:56.201Z,97298.78
2022-09-28T10:12:12.099Z,97294.25
2022-09-28T10:18:21.446Z,97297.16
2022-09-28T10:25:10.951Z,97298.06
2022-09-28T10:31:47.400Z,97297.59
2022-09-28T10:37:57.929Z,97309.94
2022-09-28T10:44:23.575Z,97308.53
2022-09-28T10:50:39.597Z,97300.53
2022-09-28T10:56:41.952Z,97320.03
2022-09-28T11:02:46.093Z,97324.88
2022-09-28T11:08:50.132Z,97327.91
2022-09-28T11:15:05.569Z,97319.19
2022-09-28T11:21:22.902Z,97333.88
2022-09-28T11:27:36.558Z,97334.09
2022-09-28T11:33:42.251Z,97341.28
2022-09-28T11:40:15.144Z,97341.28
2022-09-28T11:53:04.632Z,97344.13
2022-09-28T11:59:24.069Z,97342.19
2022-09-28T12:05:33.885Z,97348.84
2022-09-28T12:11:39.516Z,97347.22
2022-09-28T12:18:08.616Z,97353.97
2022-09-28T12:24:23.784Z,97351.25
2022-09-28T12:30:28.155Z,97349.25
2022-09-28T12:36:48.297Z,97352.19
2022-09-28T12:43:09.610Z,97353.91
2022-09-28T12:50:37.713Z,97357.19
2022-09-28T12:56:40.167Z,97353.91
2022-09-28T13:03:35.458Z,97362.16
2022-09-28T13:10:23.736Z,97359.53
2022-09-28T13:16:34.728Z,97367.22
2022-09-28T13:23:10.511Z,97368.81
2022-09-28T13:29:19.312Z,97380.44
2022-09-28T13:35:21.718Z,97382.88
2022-09-28T13:41:36.184Z,97378.81
2022-09-28T13:48:14.621Z,97384.59
2022-09-28T13:55:14.138Z,97388.31
2022-09-28T14:01:40.191Z,97391.13
2022-09-28T14:08:11.156Z,97394.53
2022-09-28T14:14:16.066Z,97395.00
2022-09-28T14:20:23.166Z,97396.22
2022-09-28T14:26:41.785Z,97405.66
2022-09-28T14:32:57.551Z,97408.41
2022-09-28T14:39:18.426Z,97419.69
2022-09-28T14:45:34.726Z,97418.88
2022-09-28T14:51:48.404Z,97425.63
2022-09-28T14:57:57.931Z,97437.28
2022-09-28T15:04:04.657Z,97428.59
2022-09-28T15:10:31.418Z,97434.88
2022-09-28T15:16:33.918Z,97435.03
2022-09-28T15:22:37.650Z,97435.03
2022-09-28T15:28:44.976Z,97432.84
2022-09-28T15:34:54.475Z,97434.09
2022-09-28T15:40:57.462Z,97440.22
2022-09-28T15:47:16.791Z,97440.50
2022-09-28T15:53:19.134Z,97448.44
2022-09-28T16:06:10.744Z,97453.34
2022-09-28T16:18:33.730Z,97472.03
2022-09-28T16:24:38.412Z,97472.91
2022-09-28T16:31:07.590Z,97482.44
2022-09-28T16:37:33.834Z,97486.28
2022-09-28T16:43:36.540Z,97494.50
2022-09-28T16:49:39.943Z,97503.81
2022-09-28T17:08:48.624Z,97517.63
2022-09-28T17:14:50.574Z,97531.28
2022-09-28T17:20:55.920Z,97522.34
2022-09-28T17:26:58.009Z,97539.41
2022-09-28T17:33:01.623Z,97548.19
2022-09-28T17:39:04.176Z,97541.47
2022-09-28T17:45:06.811Z,97555.19
2022-09-28T17:51:09.373Z,97558.34
2022-09-28T17:57:11.474Z,97560.69
2022-09-28T18:03:23.170Z,97562.88
2022-09-28T18:09:25.464Z,97571.72
2022-09-28T18:15:27.674Z,97566.28
2022-09-28T18:21:34.457Z,97577.25
2022-09-28T18:27:37.020Z,97583.97
2022-09-28T18:33:49.853Z,97576.28
2022-09-28T18:39:52.887Z,97589.59
2022-09-28T18:45:56.255Z,97592.09
2022-09-28T18:51:58.923Z,97605.75
2022-09-28T18:58:32.225Z,97600.88
2022-09-28T19:04:39.891Z,97604.34
2022-09-28T19:10:48.590Z,97606.56
2022-09-28T19:16:59.582Z,97622.09
2022-09-28T19:23:02.208Z,97619.78
2022-09-28T19:29:04.139Z,97621.19
2022-09-28T19:35:10.175Z,97623.66
2022-09-28T19:41:40.768Z,97625.03
2022-09-28T19:47:49.364Z,97627.00
2022-09-28T19:53:51.266Z,97632.94
2022-09-28T20:00:04.223Z,97638.06
2022-09-28T20:06:16.441Z,97640.72
2022-09-28T20:12:19.298Z,97630.50
2022-09-28T20:18:22.253Z,97641.22
2022-09-28T20:24:29.577Z,97651.78
2022-09-28T20:30:31.927Z,97656.34
2022-09-28T20:37:38.293Z,97656.47
2022-09-28T20:44:05.367Z,97656.56
2022-09-28T20:50:08.508Z,97658.19
2022-09-28T20:56:26.479Z,97659.94
2022-09-28T21:02:28.419Z,97661.00
2022-09-28T21:08:31.781Z,97670.41
2022-09-28T21:14:34.988Z,97663.31
2022-09-28T21:20:48.769Z,97665.47
2022-09-28T21:27:06.810Z,97669.81
2022-09-28T21:33:30.082Z,97669.50
2022-09-28T21:39:32.075Z,97678.97
2022-09-28T21:45:38.334Z,97682.47
2022-09-28T21:51:43.005Z,97680.94
2022-09-28T21:57:50.777Z,97694.34
2022-09-28T22:03:57.014Z,97687.41
2022-09-28T22:09:58.937Z,97697.38
2022-09-28T22:16:01.717Z,97693.72
2022-09-28T22:22:03.646Z,97696.47
2022-09-28T22:28:08.121Z,97700.41
2022-09-28T22:34:11.966Z,97702.69
2022-09-28T22:40:21.295Z,97704.78
2022-09-28T22:46:27.816Z,97710.38
2022-09-28T22:52:32.580Z,97704.09
2022-09-28T22:58:35.749Z,97702.63
2022-09-28T23:04:37.770Z,97713.97
2022-09-28T23:10:39.667Z,97714.69
2022-09-28T23:16:41.714Z,97721.06
2022-09-28T23:22:47.888Z,97704.59
2022-09-28T23:28:49.893Z,97713.41
2022-09-28T23:34:51.789Z,97717.59
2022-09-28T23:40:53.768Z,97719.88
2022-09-28T23:47:04.742Z,97709.69
2022-09-28T23:59:28.153Z,97715.59
